createdAt,value
2023-01-19T00:01:07.153Z,77.54
2023-01-19T00:06:08.479Z,75.34
2023-01-19T00:11:09.771Z,74.29
2023-01-19T00:16:11.492Z,73.10
2023-01-19T00:21:14.811Z,71.90
2023-01-19T00:26:16.377Z,72.00
2023-01-19T00:31:20.700Z,71.65
2023-01-19T00:36:22.205Z,69.88
2023-01-19T00:41:43.407Z,70.51
2023-01-19T00:46:44.684Z,69.51
2023-01-19T00:51:45.937Z,67.80
2023-01-19T00:56:47.158Z,67.73
2023-01-19T01:01:48.515Z,67.79
2023-01-19T01:06:49.809Z,67.37
2023-01-19T01:11:51.071Z,67.23
2023-01-19T01:16:52.360Z,67.51
2023-01-19T01:21:53.671Z,70.31
2023-01-19T01:26:54.882Z,71.00
2023-01-19T01:31:56.191Z,71.56
2023-01-19T01:36:57.495Z,71.82
2023-01-19T01:41:58.795Z,71.13
2023-01-19T01:47:00.583Z,68.50
2023-01-19T01:52:01.820Z,67.19
2023-01-19T01:57:03.048Z,69.46
2023-01-19T02:02:23.149Z,69.00
2023-01-19T02:07:43.401Z,67.96
2023-01-19T02:13:03.588Z,68.94
2023-01-19T02:18:04.951Z,68.66
2023-01-19T02:23:06.166Z,66.99
2023-01-19T02:28:07.377Z,67.08
2023-01-19T02:33:08.657Z,66.44
2023-01-19T02:38:09.938Z,67.27
2023-01-19T02:43:11.200Z,68.17
2023-01-19T02:48:12.447Z,66.86
2023-01-19T02:53:13.669Z,65.75
2023-01-19T02:58:14.901Z,65.68
2023-01-19T03:03:16.192Z,65.51
2023-01-19T03:08:17.640Z,65.50
2023-01-19T03:13:18.891Z,65.15
2023-01-19T03:18:20.160Z,66.20
2023-01-19T03:23:21.443Z,65.97
2023-01-19T03:28:22.803Z,64.69
2023-01-19T03:33:26.073Z,65.73
2023-01-19T03:38:27.339Z,64.37
2023-01-19T03:43:28.550Z,64.39
2023-01-19T03:48:29.892Z,64.77
2023-01-19T03:53:31.142Z,65.75
2023-01-19T03:58:32.453Z,65.95
2023-01-19T04:03:33.692Z,68.01
2023-01-19T04:08:34.920Z,68.00
2023-01-19T04:13:36.188Z,69.57
2023-01-19T04:18:37.436Z,68.87
2023-01-19T04:23:38.812Z,69.35
2023-01-19T04:28:40.101Z,69.75
2023-01-19T04:33:41.428Z,69.85
2023-01-19T04:38:42.928Z,69.66
2023-01-19T04:43:44.219Z,70.16
2023-01-19T04:48:45.448Z,70.63
2023-01-19T04:53:46.670Z,71.11
2023-01-19T04:58:47.928Z,70.97
2023-01-19T05:03:49.136Z,71.49
2023-01-19T05:08:50.909Z,71.08
2023-01-19T05:13:52.299Z,72.90
2023-01-19T05:18:53.568Z,72.56
2023-01-19T05:23:54.906Z,72.64
2023-01-19T05:28:56.566Z,73.98
2023-01-19T05:33:57.811Z,74.04
2023-01-19T05:38:59.061Z,74.02
2023-01-19T05:44:00.547Z,73.61
2023-01-19T05:49:04.187Z,72.86
2023-01-19T05:54:05.438Z,72.22
2023-01-19T05:59:06.647Z,70.22
2023-01-19T06:04:07.878Z,69.67
2023-01-19T06:09:09.106Z,68.68
2023-01-19T06:14:10.546Z,68.28
2023-01-19T06:19:11.773Z,68.31
2023-01-19T06:24:14.534Z,68.39
2023-01-19T06:29:16.044Z,68.60
2023-01-19T06:34:17.393Z,68.53
2023-01-19T06:39:18.710Z,68.47
2023-01-19T06:44:19.941Z,67.88
2023-01-19T06:49:21.139Z,67.80
2023-01-19T06:54:22.433Z,67.88
2023-01-19T06:59:24.984Z,67.89
2023-01-19T07:04:27.026Z,68.23
2023-01-19T07:09:28.300Z,68.60
2023-01-19T07:14:33.539Z,68.86
2023-01-19T07:19:38.048Z,69.45
2023-01-19T07:24:39.261Z,69.80
2023-01-19T07:29:40.513Z,69.37
2023-01-19T07:34:41.891Z,69.67
2023-01-19T07:39:43.206Z,70.49
2023-01-19T07:44:44.506Z,69.50
2023-01-19T07:49:45.768Z,68.92
2023-01-19T07:54:50.834Z,68.63
2023-01-19T07:59:52.142Z,68.65
2023-01-19T08:04:53.763Z,68.71
2023-01-19T08:09:55.039Z,68.33
2023-01-19T08:14:56.328Z,68.25
2023-01-19T08:19:57.597Z,68.92
2023-01-19T08:24:58.857Z,70.17
2023-01-19T08:30:00.140Z,70.64
2023-01-19T08:35:01.445Z,71.10
2023-01-19T08:40:02.733Z,70.45
2023-01-19T08:45:03.987Z,70.93
2023-01-19T08:50:05.341Z,70.55
2023-01-19T08:55:06.671Z,69.26
2023-01-19T09:00:07.943Z,69.86
2023-01-19T09:05:09.201Z,69.99
2023-01-19T09:10:12.997Z,70.17
2023-01-19T09:15:14.328Z,69.70
2023-01-19T09:20:15.602Z,69.43
2023-01-19T09:25:16.810Z,68.10
2023-01-19T09:30:19.109Z,69.66
2023-01-19T09:35:21.583Z,69.33
2023-01-19T09:40:22.798Z,70.11
2023-01-19T09:45:24.036Z,69.38
2023-01-19T09:50:25.276Z,70.31
2023-01-19T09:55:26.580Z,69.60
2023-01-19T10:00:28.036Z,68.78
2023-01-19T10:05:29.302Z,66.22
2023-01-19T10:10:30.687Z,65.15
2023-01-19T10:15:31.930Z,65.22
2023-01-19T10:20:33.411Z,64.35
2023-01-19T10:25:34.765Z,64.06
2023-01-19T10:30:36.114Z,64.49
2023-01-19T10:35:37.373Z,64.26
2023-01-19T10:40:38.588Z,64.19
2023-01-19T10:45:39.921Z,64.17
2023-01-19T10:50:41.356Z,63.82
2023-01-19T10:55:43.117Z,63.57
2023-01-19T11:00:44.494Z,62.90
2023-01-19T11:05:46.562Z,62.84
2023-01-19T11:10:49.296Z,61.52
2023-01-19T11:15:50.609Z,59.61
2023-01-19T11:20:51.863Z,58.59
2023-01-19T11:25:53.154Z,57.34
2023-01-19T11:30:54.453Z,56.77
2023-01-19T11:35:55.749Z,56.69
2023-01-19T11:40:57.097Z,56.48
2023-01-19T11:45:58.774Z,55.65
2023-01-19T11:51:00.138Z,54.86
2023-01-19T11:56:02.870Z,55.16
2023-01-19T12:01:04.149Z,52.12
2023-01-19T12:06:05.408Z,50.93
2023-01-19T12:11:06.646Z,51.01
2023-01-19T12:16:08.390Z,49.75
2023-01-19T12:21:09.659Z,50.26
2023-01-19T12:26:10.928Z,49.45
2023-01-19T12:31:12.289Z,47.49
2023-01-19T12:36:14.203Z,48.40
2023-01-19T12:41:15.675Z,49.82
2023-01-19T12:46:16.969Z,49.02
2023-01-19T12:51:18.419Z,49.43
2023-01-19T12:56:20.325Z,48.98
2023-01-19T13:01:21.956Z,57.35
2023-01-19T13:06:23.259Z,49.01
2023-01-19T13:11:27.284Z,50.55
2023-01-19T13:16:29.869Z,51.51
2023-01-19T13:21:31.140Z,51.84
2023-01-19T13:26:32.342Z,53.35
2023-01-19T13:31:33.615Z,53.91
2023-01-19T13:36:34.914Z,53.42
2023-01-19T13:41:36.269Z,53.61
2023-01-19T13:46:38.538Z,53.15
2023-01-19T13:51:39.902Z,53.66
2023-01-19T13:56:43.463Z,54.97
2023-01-19T14:01:44.917Z,55.59
2023-01-19T14:06:48.844Z,57.46
2023-01-19T14:11:50.975Z,58.20
2023-01-19T14:16:52.211Z,59.34
2023-01-19T14:21:53.455Z,59.06
2023-01-19T14:26:56.287Z,59.37
2023-01-19T14:31:57.977Z,60.08
2023-01-19T14:36:59.223Z,61.04
2023-01-19T14:42:00.535Z,60.82
2023-01-19T14:47:01.795Z,60.02
2023-01-19T14:52:03.203Z,59.83
2023-01-19T14:57:04.453Z,59.89
2023-01-19T15:02:05.892Z,60.14
2023-01-19T15:07:07.242Z,60.63
2023-01-19T15:12:08.496Z,59.36
2023-01-19T15:17:09.822Z,57.30
2023-01-19T15:22:11.279Z,56.30
2023-01-19T15:27:12.563Z,55.99
2023-01-19T15:32:14.116Z,55.39
2023-01-19T15:37:15.386Z,56.49
2023-01-19T15:42:16.654Z,54.18
2023-01-19T15:47:17.901Z,53.49
2023-01-19T15:52:19.246Z,53.47
2023-01-19T15:57:20.458Z,53.40
2023-01-19T16:02:21.788Z,53.61
2023-01-19T16:07:23.117Z,53.45
2023-01-19T16:12:24.456Z,53.14
2023-01-19T16:17:25.719Z,55.01
2023-01-19T16:22:26.955Z,53.74
2023-01-19T16:27:28.186Z,54.49
2023-01-19T16:32:29.447Z,54.94
2023-01-19T16:37:30.722Z,56.04
2023-01-19T16:42:32.038Z,56.43
2023-01-19T16:47:33.302Z,56.60
2023-01-19T16:52:34.543Z,57.21
2023-01-19T16:57:36.206Z,59.28
2023-01-19T17:02:37.562Z,60.08
2023-01-19T17:07:38.896Z,59.13
2023-01-19T17:12:40.244Z,59.41
2023-01-19T17:17:41.446Z,58.96
2023-01-19T17:22:42.695Z,59.28
2023-01-19T17:27:44.142Z,59.43
2023-01-19T17:32:45.386Z,59.61
2023-01-19T17:37:46.622Z,59.23
2023-01-19T17:42:47.957Z,59.08
2023-01-19T17:47:50.084Z,59.07
2023-01-19T17:52:51.384Z,59.16
2023-01-19T17:57:52.633Z,58.74
2023-01-19T18:02:53.933Z,59.40
2023-01-19T18:07:55.238Z,59.22
2023-01-19T18:12:56.733Z,57.99
2023-01-19T18:17:57.985Z,57.40
2023-01-19T18:22:59.247Z,57.93
2023-01-19T18:28:00.562Z,57.83
2023-01-19T18:33:01.790Z,58.43
2023-01-19T18:38:03.057Z,57.96
2023-01-19T18:43:04.267Z,57.07
2023-01-19T18:48:05.505Z,56.46
2023-01-19T18:53:06.713Z,56.45
2023-01-19T18:58:08.758Z,56.59
2023-01-19T19:03:10.360Z,56.28
2023-01-19T19:08:11.640Z,56.62
2023-01-19T19:13:12.873Z,56.81
2023-01-19T19:18:15.051Z,57.10
2023-01-19T19:23:16.406Z,57.51
2023-01-19T19:28:19.197Z,57.87
2023-01-19T19:33:21.632Z,59.07
2023-01-19T19:38:23.406Z,58.74
2023-01-19T19:43:24.741Z,58.45
2023-01-19T19:48:25.982Z,58.08
2023-01-19T19:53:27.226Z,58.20
2023-01-19T19:58:28.495Z,58.52
2023-01-19T20:03:30.415Z,58.45
2023-01-19T20:08:31.693Z,58.69
2023-01-19T20:13:33.639Z,58.37
2023-01-19T20:18:34.924Z,58.88
2023-01-19T20:23:36.152Z,59.86
2023-01-19T20:28:37.404Z,59.62
2023-01-19T20:33:38.724Z,59.88
2023-01-19T20:38:40.004Z,59.98
2023-01-19T20:43:41.275Z,59.71
2023-01-19T20:48:42.532Z,59.59
2023-01-19T20:53:43.769Z,60.44
2023-01-19T20:58:44.967Z,60.26
2023-01-19T21:03:46.210Z,60.17
2023-01-19T21:08:49.529Z,59.64
2023-01-19T21:13:55.320Z,59.49
2023-01-19T21:18:56.536Z,59.64
2023-01-19T21:23:57.829Z,59.63
2023-01-19T21:28:59.181Z,59.31
2023-01-19T21:34:00.548Z,60.07
2023-01-19T21:39:01.923Z,59.97
2023-01-19T21:44:03.242Z,60.37
2023-01-19T21:49:04.524Z,60.75
2023-01-19T21:54:05.907Z,60.78
2023-01-19T21:59:07.502Z,60.67
2023-01-19T22:04:09.197Z,61.41
2023-01-19T22:09:10.491Z,60.46
2023-01-19T22:14:11.766Z,60.60
2023-01-19T22:19:17.420Z,60.86
2023-01-19T22:24:18.658Z,60.76
2023-01-19T22:29:19.933Z,61.11
2023-01-19T22:34:21.179Z,61.69
2023-01-19T22:39:22.450Z,62.07
2023-01-19T22:44:23.798Z,61.99
2023-01-19T22:49:25.143Z,61.95
2023-01-19T22:54:26.531Z,62.60
2023-01-19T22:59:27.804Z,62.63
2023-01-19T23:04:29.177Z,63.39
2023-01-19T23:09:30.491Z,63.94
2023-01-19T23:14:31.971Z,64.59
2023-01-19T23:19:33.210Z,65.38
2023-01-19T23:24:34.409Z,66.33
2023-01-19T23:29:36.256Z,65.91
2023-01-19T23:34:37.545Z,66.02
2023-01-19T23:39:38.786Z,65.56
2023-01-19T23:44:40.025Z,64.53
2023-01-19T23:49:42.104Z,64.82
2023-01-19T23:54:44.791Z,64.96
2023-01-19T23:59:46.034Z,64.67
